Time;durP1;ratioP1;P1;durP2;ratioP2;P2;SDS_P1;SDS_P2;PMS_P1;PMS_P2;Temp;Humidity;BMP_temperature;BMP_pressure;BME280_temperature;BME280_humidity;BME280_pressure;Samples;Min_cycle;Max_cycle;Signal;HPM_P1;HPM_P2
2023/04/26 00:02:53;;;;;;;12.57;4.20;;;;;;;2.20;100.00;96350.38;10410995;28;20207;-64
2023/04/26 00:07:53;;;;;;;6.90;2.97;;;;;;;1.94;100.00;96337.63;10411419;28;20258;-65
2023/04/26 00:12:53;;;;;;;5.60;2.93;;;;;;;1.80;100.00;96337.81;10410854;28;20753;-66
2023/04/26 00:17:54;;;;;;;4.37;2.37;;;;;;;1.82;100.00;96335.94;10410550;28;20279;-66
2023/04/26 00:22:54;;;;;;;8.07;2.87;;;;;;;1.53;100.00;96331.97;10411121;28;20208;-66
2023/04/26 00:27:55;;;;;;;5.93;2.67;;;;;;;1.36;100.00;96328.00;10410567;28;20314;-66
2023/04/26 00:32:55;;;;;;;7.87;2.83;;;;;;;1.46;100.00;96332.50;10393337;28;20204;-66
2023/04/26 00:37:55;;;;;;;11.47;3.20;;;;;;;1.24;100.00;96340.00;10410410;28;20237;-66
2023/04/26 00:42:57;;;;;;;6.40;2.83;;;;;;;1.31;100.00;96337.00;10410068;28;20263;-66
2023/04/26 00:48:02;;;;;;;11.17;3.33;;;;;;;1.36;100.00;96346.06;10393019;28;20225;-66
2023/04/26 00:53:03;;;;;;;6.17;2.87;;;;;;;1.44;100.00;96348.09;10410058;28;20244;-66
2023/04/26 00:58:03;;;;;;;7.90;2.90;;;;;;;1.54;100.00;96345.69;10392968;28;20655;-66
2023/04/26 01:03:03;;;;;;;9.27;3.20;;;;;;;1.58;100.00;96341.94;10409317;28;20636;-66
2023/04/26 01:08:05;;;;;;;10.27;3.40;;;;;;;1.61;100.00;96352.06;10392449;28;20579;-66
2023/04/26 01:13:05;;;;;;;6.60;3.37;;;;;;;1.66;100.00;96343.97;10392206;28;20217;-66
2023/04/26 01:18:05;;;;;;;7.00;3.10;;;;;;;1.76;100.00;96350.09;10409942;28;20185;-66
2023/04/26 01:23:08;;;;;;;5.67;3.13;;;;;;;1.78;100.00;96349.06;10410136;28;20216;-67
2023/04/26 01:28:08;;;;;;;4.57;3.33;;;;;;;1.81;100.00;96347.19;10391944;28;20651;-67
2023/04/26 01:33:08;;;;;;;7.93;3.60;;;;;;;1.76;100.00;96343.22;10397751;28;20240;-66
2023/04/26 01:38:09;;;;;;;8.47;3.63;;;;;;;1.67;100.00;96355.94;10416544;28;20197;-66
2023/04/26 01:43:10;;;;;;;8.37;3.90;;;;;;;1.60;100.00;96350.41;10398538;28;20239;-65
2023/04/26 01:48:10;;;;;;;5.43;3.57;;;;;;;1.50;100.00;96355.41;10415937;28;20219;-65
2023/04/26 01:53:11;;;;;;;9.93;3.70;;;;;;;1.55;100.00;96358.47;10415515;28;20243;-65
2023/04/26 01:58:11;;;;;;;10.03;4.20;;;;;;;1.38;100.00;96354.50;10397939;28;20280;-65
2023/04/26 02:03:11;;;;;;;11.63;4.30;;;;;;;1.35;100.00;96367.63;10414824;28;20211;-65
2023/04/26 02:08:12;;;;;;;10.43;4.17;;;;;;;1.35;100.00;96371.97;10415510;28;20331;-65
2023/04/26 02:13:13;;;;;;;10.80;3.93;;;;;;;1.35;100.00;96372.78;10415428;28;20195;-66
2023/04/26 02:18:14;;;;;;;6.77;3.80;;;;;;;1.31;100.00;96368.78;10397329;28;20199;-66
2023/04/26 02:23:15;;;;;;;9.80;4.10;;;;;;;1.46;100.00;96366.88;10414940;28;20609;-65
2023/04/26 02:28:16;;;;;;;9.73;4.03;;;;;;;1.38;100.00;96364.84;10404948;28;20219;-66
2023/04/26 02:33:17;;;;;;;8.50;3.63;;;;;;;1.32;100.00;96364.47;10397228;28;20191;-66
2023/04/26 02:38:17;;;;;;;10.23;4.60;;;;;;;1.25;100.00;96364.84;10396669;28;20195;-65
2023/04/26 02:43:17;;;;;;;8.07;3.73;;;;;;;1.55;100.00;96368.00;10413639;28;20256;-66
2023/04/26 02:48:18;;;;;;;8.57;4.00;;;;;;;1.53;100.00;96359.50;10394883;28;20219;-66
2023/04/26 02:53:18;;;;;;;12.20;4.13;;;;;;;1.43;100.00;96355.00;10396064;28;20196;-66
2023/04/26 02:58:19;;;;;;;8.10;4.33;;;;;;;1.58;100.00;96365.19;10395898;28;20287;-65
2023/04/26 03:03:19;;;;;;;7.33;3.73;;;;;;;1.67;100.00;96367.09;10413247;28;20239;-65
2023/04/26 03:08:20;;;;;;;7.27;3.83;;;;;;;1.62;100.00;96353.69;10395419;28;20220;-66
2023/04/26 03:13:23;;;;;;;8.10;3.77;;;;;;;1.63;100.00;96355.34;10395390;28;20200;-65
2023/04/26 03:18:24;;;;;;;16.97;4.00;;;;;;;1.63;100.00;96360.50;10411690;28;20573;-65
2023/04/26 03:23:25;;;;;;;9.90;3.87;;;;;;;1.61;100.00;96364.97;10411548;28;20199;-65
2023/04/26 03:28:26;;;;;;;8.60;3.60;;;;;;;1.48;100.00;96367.56;10394646;28;20213;-66
2023/04/26 03:33:27;;;;;;;8.53;3.77;;;;;;;1.54;100.00;96366.31;10412245;28;20239;-66
2023/04/26 03:38:27;;;;;;;11.73;4.20;;;;;;;1.52;100.00;96368.22;10411867;28;20219;-66
2023/04/26 03:43:28;;;;;;;13.80;3.30;;;;;;;1.60;100.00;96365.91;10394275;28;20650;-66
2023/04/26 03:48:28;;;;;;;9.63;3.10;;;;;;;1.55;100.00;96362.81;10393951;28;20224;-66
2023/04/26 03:53:29;;;;;;;12.33;4.13;;;;;;;1.52;100.00;96363.84;10411217;28;20184;-65
2023/04/26 03:58:29;;;;;;;10.20;3.63;;;;;;;1.51;100.00;96371.72;10411321;28;20195;-67
2023/04/26 04:03:30;;;;;;;11.23;4.37;;;;;;;1.50;100.00;96370.06;10409910;28;20188;-66
2023/04/26 04:08:30;;;;;;;11.53;3.90;;;;;;;1.50;100.00;96378.63;10411122;28;20722;-65
2023/04/26 04:13:31;;;;;;;8.90;3.13;;;;;;;1.41;100.00;96372.38;10411200;28;20230;-65
2023/04/26 04:18:31;;;;;;;8.60;2.73;;;;;;;1.27;100.00;96380.22;10393356;28;20208;-66
2023/04/26 04:23:33;;;;;;;4.73;2.70;;;;;;;1.15;100.00;96384.50;10393328;28;20287;-65
2023/04/26 04:28:35;;;;;;;12.67;2.83;;;;;;;1.08;100.00;96387.63;10393086;28;20221;-65
2023/04/26 04:33:36;;;;;;;7.50;3.13;;;;;;;1.26;100.00;96388.91;10410654;28;20219;-65
2023/04/26 04:38:37;;;;;;;7.50;3.17;;;;;;;1.32;100.00;96387.69;10393391;28;20236;-65
2023/04/26 04:43:38;;;;;;;10.33;3.70;;;;;;;1.43;100.00;96404.03;10409525;28;20570;-65
2023/04/26 04:48:41;;;;;;;9.83;3.23;;;;;;;1.53;100.00;96401.66;10410403;28;20264;-65
2023/04/26 04:53:41;;;;;;;6.30;3.50;;;;;;;1.79;100.00;96406.69;10376546;28;20189;-66
2023/04/26 04:58:41;;;;;;;8.50;3.87;;;;;;;1.90;100.00;96403.34;10410068;28;20690;-65
2023/04/26 05:03:42;;;;;;;10.53;3.90;;;;;;;1.93;100.00;96406.56;10393233;28;20285;-65
2023/04/26 05:08:43;;;;;;;8.03;4.03;;;;;;;2.23;100.00;96407.84;10399998;28;20343;-65
2023/04/26 05:13:45;;;;;;;13.37;3.70;;;;;;;2.16;100.00;96414.41;10400040;28;20200;-64
2023/04/26 05:18:45;;;;;;;9.80;3.57;;;;;;;2.33;100.00;96408.00;10400151;28;20687;-65
2023/04/26 05:23:46;;;;;;;9.07;3.93;;;;;;;2.50;100.00;96412.75;10415834;28;20193;-66
2023/04/26 05:28:46;;;;;;;6.20;3.70;;;;;;;2.69;100.00;96411.38;10399552;28;20712;-64
2023/04/26 05:33:59;;;;;;;13.43;5.27;;;;;;;2.61;100.00;96408.53;10399402;28;20280;-65
2023/04/26 05:39:06;;;;;;;12.07;5.80;;;;;;;2.12;100.00;96418.13;10416717;28;20286;-65
2023/04/26 05:44:07;;;;;;;16.63;5.77;;;;;;;2.71;100.00;96431.94;10415091;28;20189;-65
2023/04/26 05:49:07;;;;;;;13.40;6.13;;;;;;;2.93;100.00;96436.34;10398930;28;20269;-63
2023/04/26 05:54:08;;;;;;;12.60;5.73;;;;;;;3.10;100.00;96430.69;10389807;28;20284;-64
2023/04/26 05:59:08;;;;;;;17.80;7.20;;;;;;;3.12;100.00;96423.63;10398235;28;20212;-64
2023/04/26 06:04:09;;;;;;;15.20;6.90;;;;;;;3.49;100.00;96428.56;10397964;28;20562;-65
2023/04/26 06:09:20;;;;;;;5.67;4.67;;;;;;;3.62;100.00;96430.22;10397661;28;20592;-65
2023/04/26 06:14:20;;;;;;;9.43;4.73;;;;;;;3.84;100.00;96419.78;10398438;28;20223;-64
2023/04/26 06:19:21;;;;;;;10.23;4.17;;;;;;;3.63;99.63;96427.50;10396842;28;20204;-63
2023/04/26 06:24:22;;;;;;;10.23;3.83;;;;;;;3.90;97.17;96427.06;10387517;28;20189;-63
2023/04/26 06:29:23;;;;;;;8.30;3.60;;;;;;;4.02;93.78;96411.50;10375093;28;20686;-64
2023/04/26 06:34:23;;;;;;;9.43;3.70;;;;;;;3.96;90.62;96388.66;10392709;28;20203;-65
2023/04/26 06:39:24;;;;;;;13.03;3.40;;;;;;;3.84;89.68;96398.22;10369516;28;20255;-64
2023/04/26 06:44:25;;;;;;;9.47;3.40;;;;;;;3.62;91.68;96414.66;10355456;28;20193;-65
2023/04/26 06:49:27;;;;;;;8.53;3.50;;;;;;;4.62;88.53;96404.00;10355507;28;20295;-66
2023/04/26 06:54:28;;;;;;;9.10;2.93;;;;;;;5.47;85.13;96382.13;10372036;28;21502;-64
2023/04/26 06:59:29;;;;;;;9.93;2.70;;;;;;;5.21;80.54;96332.44;10410067;28;20208;-65
2023/04/26 07:04:30;;;;;;;8.43;2.53;;;;;;;4.46;82.80;96379.34;10411595;28;20281;-65
2023/04/26 07:09:30;;;;;;;10.33;2.87;;;;;;;4.61;82.61;96382.44;10409894;28;20221;-67
2023/04/26 07:14:31;;;;;;;10.70;2.80;;;;;;;5.08;80.76;96363.81;10410484;28;20609;-66
2023/04/26 07:19:31;;;;;;;7.80;2.47;;;;;;;4.91;77.78;96325.50;10411184;28;20594;-67
2023/04/26 07:24:31;;;;;;;13.53;3.20;;;;;;;5.90;76.51;96348.97;10411126;28;20598;-67
2023/04/26 07:29:32;;;;;;;13.80;2.80;;;;;;;5.98;73.63;96311.91;10409199;28;20251;-67
2023/04/26 07:34:32;;;;;;;13.87;2.70;;;;;;;5.80;75.32;96342.94;10410460;28;20387;-65
2023/04/26 07:39:32;;;;;;;10.33;2.40;;;;;;;6.03;72.95;96312.31;10410284;28;20244;-66
2023/04/26 07:44:33;;;;;;;11.83;2.87;;;;;;;6.50;73.54;96327.16;10396980;28;20271;-66
2023/04/26 07:49:33;;;;;;;8.73;2.60;;;;;;;6.39;68.65;96256.13;10400805;28;20311;-66
2023/04/26 07:54:34;;;;;;;12.13;2.40;;;;;;;5.47;72.82;96324.16;10408113;28;20191;-66
2023/04/26 07:59:34;;;;;;;10.43;2.60;;;;;;;5.57;72.28;96316.38;10410155;28;20247;-67
2023/04/26 08:04:35;;;;;;;7.77;2.03;;;;;;;6.12;69.58;96263.84;10409818;28;20302;-66
2023/04/26 08:09:35;;;;;;;13.60;2.37;;;;;;;5.95;71.64;96323.38;10410022;28;20215;-66
2023/04/26 08:14:36;;;;;;;6.50;2.77;;;;;;;5.91;70.66;96314.19;10409955;28;20192;-67
2023/04/26 08:19:37;;;;;;;11.87;2.50;;;;;;;5.86;72.57;96356.19;10408051;28;20215;-65
2023/04/26 08:24:37;;;;;;;11.40;2.50;;;;;;;5.93;68.93;96291.50;10409640;28;20220;-64
2023/04/26 08:29:37;;;;;;;10.00;2.43;;;;;;;5.33;71.03;96323.59;10409242;28;20232;-66
2023/04/26 08:34:38;;;;;;;11.20;2.40;;;;;;;5.02;73.90;96371.31;10384787;28;20193;-66
2023/04/26 08:39:38;;;;;;;5.93;1.90;;;;;;;5.33;74.44;96388.50;10370008;28;20247;-65
2023/04/26 08:44:40;;;;;;;9.13;2.40;;;;;;;5.66;71.29;96323.34;10389574;28;20274;-63
2023/04/26 08:49:43;;;;;;;5.13;1.70;;;;;;;7.32;65.99;96271.72;10414124;28;20240;-64
2023/04/26 08:54:45;;;;;;;6.00;2.10;;;;;;;8.07;60.00;96179.28;10416661;28;20192;-65
2023/04/26 08:59:46;;;;;;;7.17;2.00;;;;;;;7.07;59.96;96179.47;10398964;28;20703;-64
2023/04/26 09:04:47;;;;;;;5.57;2.07;;;;;;;6.79;63.41;96249.78;10399139;28;20209;-66
2023/04/26 09:09:50;;;;;;;9.33;2.10;;;;;;;6.53;62.95;96246.22;10416769;28;20196;-64
2023/04/26 09:14:50;;;;;;;4.00;2.10;;;;;;;5.88;64.58;96272.88;10416565;28;20220;-65
2023/04/26 09:19:50;;;;;;;8.13;2.30;;;;;;;6.23;66.33;96300.09;10413839;28;20220;-65
2023/04/26 09:24:51;;;;;;;11.67;2.53;;;;;;;7.22;62.33;96249.31;10415778;28;20316;-64
2023/04/26 09:30:04;;;;;;;7.03;2.30;;;;;;;7.36;60.59;96230.53;10414054;28;20219;-65
2023/04/26 09:35:05;;;;;;;7.43;3.10;;;;;;;6.52;63.45;96273.19;10413450;28;20196;-63
2023/04/26 09:40:17;;;;;;;6.93;2.80;;;;;;;6.18;64.48;96294.50;10414877;28;20231;-65
2023/04/26 09:45:18;;;;;;;7.43;3.07;;;;;;;6.24;65.36;96310.34;10414842;28;20216;-66
2023/04/26 09:50:26;;;;;;;5.77;2.97;;;;;;;5.20;66.37;96310.00;10412479;28;20618;-65
2023/04/26 09:55:28;;;;;;;6.03;2.70;;;;;;;6.72;64.58;96305.19;10401197;28;20200;-63
2023/04/26 10:00:29;;;;;;;5.33;2.83;;;;;;;5.84;63.83;96271.53;10395356;28;20212;-64
2023/04/26 10:05:31;;;;;;;9.23;2.87;;;;;;;4.58;66.32;96310.06;10371528;28;20217;-64
2023/04/26 10:10:31;;;;;;;4.80;2.43;;;;;;;5.34;66.44;96334.78;10375095;28;20213;-65
2023/04/26 10:15:32;;;;;;;5.50;2.87;;;;;;;5.00;67.16;96341.09;10372925;28;20190;-64
2023/04/26 10:20:34;;;;;;;6.33;2.90;;;;;;;5.43;66.08;96312.38;10389441;28;20231;-64
2023/04/26 10:25:36;;;;;;;7.07;2.43;;;;;;;5.58;64.13;96261.69;10381320;28;20719;-65
2023/04/26 10:30:56;;;;;;;4.63;2.10;;;;;;;6.31;60.15;96209.19;10391233;28;20583;-66
2023/04/26 10:36:11;;;;;;;4.37;2.40;;;;;;;7.46;58.28;96214.84;10382472;28;20567;-66
2023/04/26 10:41:30;;;;;;;4.60;2.13;;;;;;;8.20;57.03;96194.53;10372100;28;20328;-65
2023/04/26 10:46:40;;;;;;;7.60;2.30;;;;;;;6.33;63.14;96281.88;10371984;28;20228;-66
2023/04/26 10:51:40;;;;;;;6.47;2.40;;;;;;;5.93;61.64;96242.09;10385917;28;20274;-66
2023/04/26 10:56:49;;;;;;;5.47;2.27;;;;;;;6.81;60.56;96254.03;10370829;28;20197;-65
2023/04/26 11:01:51;;;;;;;13.33;3.20;;;;;;;6.95;62.21;96287.41;10389772;28;20213;-65
2023/04/26 11:06:53;;;;;;;6.23;2.50;;;;;;;6.99;63.04;96299.19;10388175;28;20710;-64
2023/04/26 11:11:53;;;;;;;10.07;2.50;;;;;;;7.29;58.92;96206.06;10389749;28;20205;-66
2023/04/26 11:16:53;;;;;;;6.90;2.53;;;;;;;7.58;58.16;96202.38;10394206;28;20280;-66
2023/04/26 11:21:55;;;;;;;9.23;2.67;;;;;;;7.12;59.25;96226.75;10411096;28;20653;-65
2023/04/26 11:26:56;;;;;;;6.43;2.23;;;;;;;6.66;61.08;96249.31;10411443;28;20319;-66
2023/04/26 11:31:57;;;;;;;18.17;4.33;;;;;;;7.74;58.74;96230.41;10410057;28;20614;-64
2023/04/26 11:36:58;;;;;;;11.30;2.83;;;;;;;9.78;54.57;96185.16;10411212;28;20246;-65
2023/04/26 11:42:06;;;;;;;8.60;2.57;;;;;;;9.27;52.23;96140.88;10388843;28;20311;-66
2023/04/26 11:47:06;;;;;;;5.97;2.27;;;;;;;8.69;55.04;96184.34;10384750;28;20240;-67
2023/04/26 11:52:07;;;;;;;7.07;2.57;;;;;;;7.50;56.43;96200.53;10369987;28;20314;-66
2023/04/26 11:57:15;;;;;;;10.67;2.57;;;;;;;8.19;54.96;96174.59;10368288;28;20189;-65
2023/04/26 12:02:15;;;;;;;7.33;2.53;;;;;;;8.69;51.88;96128.69;10393871;28;20299;-64
2023/04/26 12:07:19;;;;;;;31.53;3.73;;;;;;;8.67;51.88;96143.72;10409706;28;20239;-65
2023/04/26 12:12:22;;;;;;;5.00;2.83;;;;;;;8.82;51.28;96129.06;10408568;28;20197;-66
2023/04/26 12:17:22;;;;;;;9.00;2.40;;;;;;;8.22;53.85;96189.97;10408554;28;20236;-66
2023/04/26 12:22:22;;;;;;;7.63;2.20;;;;;;;7.85;53.67;96181.41;10408288;28;20240;-65
2023/04/26 12:27:23;;;;;;;4.83;1.93;;;;;;;7.71;55.30;96217.66;10408628;28;20209;-66
2023/04/26 12:32:23;;;;;;;6.40;2.40;;;;;;;7.89;54.34;96187.16;10403741;28;20219;-66
2023/04/26 12:37:24;;;;;;;6.20;2.50;;;;;;;8.24;54.37;96195.84;10399195;28;20215;-66
2023/04/26 12:42:24;;;;;;;12.23;2.83;;;;;;;8.91;52.43;96169.91;10409559;28;20240;-67
2023/04/26 12:47:24;;;;;;;13.27;2.83;;;;;;;9.51;52.58;96188.94;10398854;28;20740;-68
2023/04/26 12:52:26;;;;;;;3.55;2.05;;;;;;;10.79;49.78;96158.56;10394798;28;20288;-68
2023/04/26 12:57:27;;;;;;;6.55;2.28;;;;;;;10.38;48.03;96094.09;10409658;28;20231;-67
2023/04/26 13:02:27;;;;;;;7.55;2.05;;;;;;;9.86;49.17;96118.13;10408751;28;20248;-66
2023/04/26 13:07:27;;;;;;;5.47;2.30;;;;;;;9.62;49.96;96136.28;10392002;28;20225;-68
2023/04/26 13:12:28;;;;;;;7.25;2.33;;;;;;;11.71;44.86;96065.97;10383573;28;20244;-67
2023/04/26 13:17:28;;;;;;;5.05;2.20;;;;;;;12.97;43.64;96086.94;10391180;28;20251;-67
2023/04/26 13:22:28;;;;;;;8.30;2.38;;;;;;;10.17;46.52;96084.19;10385033;28;20212;-67
2023/04/26 13:27:29;;;;;;;4.90;2.30;;;;;;;10.42;46.21;96071.81;10390114;28;20300;-66
2023/04/26 13:32:30;;;;;;;6.82;2.28;;;;;;;11.18;43.95;96050.19;10391824;28;20221;-66
2023/04/26 13:37:31;;;;;;;5.13;2.20;;;;;;;10.99;43.80;96038.41;10394198;28;20277;-65
2023/04/26 13:42:31;;;;;;;7.22;1.95;;;;;;;10.38;47.79;96129.94;10392903;28;20704;-66
2023/04/26 13:47:32;;;;;;;7.03;2.40;;;;;;;8.62;49.85;96140.75;10395308;28;20354;-64
2023/04/26 13:52:32;;;;;;;5.10;2.63;;;;;;;8.98;50.13;96166.63;10404533;28;20220;-65
2023/04/26 13:57:32;;;;;;;7.27;2.27;;;;;;;8.53;52.35;96200.75;10403185;28;20600;-65
2023/04/26 14:02:33;;;;;;;8.60;2.37;;;;;;;9.08;50.63;96177.75;10408923;28;20708;-67
2023/04/26 14:07:33;;;;;;;7.63;2.20;;;;;;;8.98;51.12;96198.78;10413134;28;20698;-66
2023/04/26 14:12:33;;;;;;;7.00;2.40;;;;;;;8.59;52.23;96206.31;10412758;28;20694;-64
2023/04/26 14:17:34;;;;;;;5.93;2.40;;;;;;;7.95;50.78;96162.25;10412440;28;20617;-65
2023/04/26 14:22:34;;;;;;;6.90;2.47;;;;;;;7.88;51.93;96187.31;10412044;28;20241;-65
2023/04/26 14:27:36;;;;;;;8.57;2.40;;;;;;;8.12;52.96;96220.56;10412266;28;20220;-67
2023/04/26 14:32:36;;;;;;;6.33;1.90;;;;;;;8.50;50.92;96182.81;10413480;28;20220;-66
2023/04/26 14:37:36;;;;;;;3.17;1.80;;;;;;;8.59;52.22;96209.78;10413132;28;20599;-66
2023/04/26 14:42:43;;;;;;;4.63;2.40;;;;;;;8.95;49.87;96177.41;10412357;28;20706;-66
2023/04/26 14:47:43;;;;;;;4.30;2.10;;;;;;;9.13;50.19;96172.03;10412532;28;20717;-65
2023/04/26 14:52:43;;;;;;;4.70;2.30;;;;;;;8.39;52.01;96198.69;10412711;28;20224;-67
2023/04/26 14:57:44;;;;;;;4.73;2.57;;;;;;;7.73;53.73;96228.75;10412642;28;20247;-67
2023/04/26 15:02:44;;;;;;;5.93;2.60;;;;;;;7.90;53.03;96229.69;10412067;28;20246;-67
2023/04/26 15:07:45;;;;;;;9.40;2.73;;;;;;;8.00;53.01;96222.59;10408452;28;20220;-68
2023/04/26 15:12:45;;;;;;;10.10;2.97;;;;;;;7.90;52.71;96221.88;10410829;28;20212;-67
2023/04/26 15:17:45;;;;;;;6.93;2.70;;;;;;;8.06;52.26;96208.94;10411901;28;20220;-68
2023/04/26 15:22:46;;;;;;;5.33;2.17;;;;;;;8.26;53.56;96232.22;10411632;28;20266;-68
2023/04/26 15:27:49;;;;;;;7.40;2.27;;;;;;;7.82;53.26;96214.81;10410980;28;20224;-68
2023/04/26 15:32:49;;;;;;;4.17;1.83;;;;;;;8.23;53.26;96229.94;10411172;28;20213;-68
2023/04/26 15:37:52;;;;;;;5.37;2.40;;;;;;;7.62;55.47;96263.69;10411720;28;20272;-68
2023/04/26 15:42:52;;;;;;;8.43;2.87;;;;;;;8.04;54.22;96257.84;10410480;28;20252;-69
2023/04/26 15:47:54;;;;;;;6.30;2.73;;;;;;;8.29;53.59;96250.19;10409070;28;20705;-68
2023/04/26 15:52:54;;;;;;;9.97;2.50;;;;;;;8.40;52.76;96235.06;10410288;28;20225;-68
2023/04/26 15:57:54;;;;;;;3.80;2.00;;;;;;;7.93;53.17;96234.59;10409830;28;20215;-68
2023/04/26 16:02:55;;;;;;;5.53;2.30;;;;;;;7.65;54.53;96258.19;10409095;28;20220;-67
2023/04/26 16:07:55;;;;;;;6.77;2.20;;;;;;;7.56;54.35;96248.66;10409181;28;20223;-68
2023/04/26 16:12:56;;;;;;;6.07;2.50;;;;;;;7.48;56.88;96309.34;10411447;28;20213;-67
2023/04/26 16:17:56;;;;;;;9.37;2.77;;;;;;;7.72;56.19;96300.94;10411248;28;20188;-66
2023/04/26 16:22:56;;;;;;;10.67;2.87;;;;;;;7.39;55.40;96266.72;10411109;28;20244;-66
2023/04/26 16:27:57;;;;;;;8.43;3.90;;;;;;;7.52;56.25;96295.06;10411258;28;20224;-67
2023/04/26 16:32:57;;;;;;;8.43;2.87;;;;;;;7.40;54.36;96239.72;10410720;28;20212;-67
2023/04/26 16:37:57;;;;;;;9.20;2.37;;;;;;;7.54;54.41;96254.00;10411186;28;20236;-66
2023/04/26 16:42:58;;;;;;;5.40;2.00;;;;;;;7.64;54.79;96259.97;10410397;28;20255;-65
2023/04/26 16:47:58;;;;;;;7.37;2.40;;;;;;;7.52;55.49;96278.56;10410907;28;20219;-67
2023/04/26 16:52:58;;;;;;;4.07;2.50;;;;;;;7.19;56.32;96289.47;10410466;28;20760;-66
2023/04/26 16:57:59;;;;;;;5.97;2.87;;;;;;;7.03;57.32;96310.13;10407859;28;20685;-65
2023/04/26 17:03:00;;;;;;;18.83;7.90;;;;;;;6.99;59.02;96353.06;10375016;28;20695;-67
2023/04/26 17:08:00;;;;;;;5.77;2.80;;;;;;;7.13;56.22;96295.28;10377458;28;20279;-66
2023/04/26 17:13:05;;;;;;;6.10;2.43;;;;;;;6.98;56.77;96294.94;10377250;28;20271;-65
2023/04/26 17:18:05;;;;;;;8.70;2.80;;;;;;;6.76;58.68;96333.38;10377091;28;20190;-65
2023/04/26 17:23:07;;;;;;;7.40;3.87;;;;;;;6.58;58.79;96337.69;10376737;28;20217;-66
2023/04/26 17:28:08;;;;;;;8.17;3.30;;;;;;;6.04;60.50;96363.34;10379304;28;20220;-65
2023/04/26 17:33:09;;;;;;;8.37;2.80;;;;;;;5.96;58.73;96340.63;10394571;28;20278;-65
2023/04/26 17:38:09;;;;;;;7.73;2.90;;;;;;;5.66;62.01;96396.13;10397180;28;21008;-65
2023/04/26 17:43:10;;;;;;;8.07;2.93;;;;;;;5.58;62.35;96394.19;10394833;28;20229;-64
2023/04/26 17:48:11;;;;;;;7.77;2.63;;;;;;;5.49;63.64;96424.38;10395310;28;20212;-66
2023/04/26 17:53:12;;;;;;;21.43;8.20;;;;;;;5.43;62.64;96411.91;10393265;28;20209;-64
2023/04/26 17:58:12;;;;;;;16.97;8.73;;;;;;;5.32;65.01;96453.59;10392404;28;20181;-65
2023/04/26 18:03:12;;;;;;;6.13;2.40;;;;;;;5.39;64.47;96449.53;10392551;28;20204;-65
2023/04/26 18:08:13;;;;;;;6.47;2.73;;;;;;;5.17;65.89;96468.69;10394926;28;20342;-64
2023/04/26 18:13:13;;;;;;;6.70;2.23;;;;;;;5.15;64.83;96442.03;10413978;28;20664;-65
2023/04/26 18:18:13;;;;;;;5.27;2.33;;;;;;;5.09;65.75;96464.13;10414929;28;20560;-64
2023/04/26 18:23:15;;;;;;;6.77;2.87;;;;;;;5.05;67.59;96504.25;10414696;28;20323;-67
2023/04/26 18:28:15;;;;;;;6.30;3.30;;;;;;;4.84;68.38;96509.47;10414437;28;20212;-66
2023/04/26 18:33:16;;;;;;;3.60;2.57;;;;;;;4.69;69.52;96528.91;10400967;28;20213;-66
2023/04/26 18:38:16;;;;;;;6.30;2.97;;;;;;;4.28;71.79;96546.81;10382007;28;20185;-65
2023/04/26 18:43:16;;;;;;;10.10;3.30;;;;;;;3.89;74.71;96593.03;10389633;28;20235;-65
2023/04/26 18:48:17;;;;;;;13.00;3.23;;;;;;;3.99;75.20;96587.97;10391520;28;20235;-65
2023/04/26 18:53:17;;;;;;;7.23;2.87;;;;;;;3.90;76.73;96599.88;10402397;28;20240;-65
2023/04/26 18:58:18;;;;;;;14.47;5.90;;;;;;;3.46;79.39;96622.19;10389122;28;20181;-66
2023/04/26 19:03:18;;;;;;;17.87;8.27;;;;;;;2.51;82.26;96622.97;10373818;28;20217;-65
2023/04/26 19:08:18;;;;;;;11.93;5.20;;;;;;;2.64;85.00;96621.19;10399946;28;20236;-65
2023/04/26 19:13:19;;;;;;;14.27;5.07;;;;;;;2.61;84.73;96602.50;10412782;28;20200;-66
2023/04/26 19:18:19;;;;;;;10.10;3.90;;;;;;;2.38;85.81;96607.53;10392493;28;20186;-65
2023/04/26 19:23:20;;;;;;;12.87;3.40;;;;;;;2.65;85.99;96604.75;10386078;28;20279;-65
2023/04/26 19:28:20;;;;;;;7.50;3.93;;;;;;;1.95;89.59;96624.25;10390284;28;20244;-64
2023/04/26 19:33:20;;;;;;;10.50;3.87;;;;;;;1.98;90.81;96628.41;10390805;28;20189;-65
2023/04/26 19:38:22;;;;;;;12.97;3.80;;;;;;;2.14;90.12;96630.72;10392746;28;20582;-64
2023/04/26 19:43:22;;;;;;;9.17;3.70;;;;;;;2.19;91.18;96638.16;10394152;28;20264;-64
2023/04/26 19:48:23;;;;;;;6.00;3.70;;;;;;;2.17;90.64;96633.09;10398732;28;20310;-63
2023/04/26 19:53:23;;;;;;;4.20;3.43;;;;;;;2.03;92.48;96641.81;10391913;28;20706;-64
2023/04/26 19:58:23;;;;;;;8.63;3.40;;;;;;;2.08;92.10;96644.94;10374708;28;20571;-65
2023/04/26 20:03:24;;;;;;;12.67;3.57;;;;;;;1.96;93.16;96643.16;10370041;28;20663;-64
2023/04/26 20:08:24;;;;;;;7.90;3.80;;;;;;;1.90;93.91;96638.41;10398027;28;20216;-65
2023/04/26 20:13:25;;;;;;;11.37;5.67;;;;;;;1.80;95.06;96645.16;10410671;28;20565;-65
2023/04/26 20:18:25;;;;;;;11.90;3.97;;;;;;;1.82;94.61;96638.13;10411028;28;20193;-65
2023/04/26 20:23:26;;;;;;;8.50;3.27;;;;;;;1.75;95.82;96638.53;10410779;28;20216;-65
2023/04/26 20:28:26;;;;;;;6.90;3.53;;;;;;;1.74;95.61;96633.47;10410476;28;20792;-65
2023/04/26 20:33:27;;;;;;;6.47;3.47;;;;;;;1.75;94.74;96627.38;10410493;28;20745;-65
2023/04/26 20:38:28;;;;;;;10.87;3.60;;;;;;;1.71;95.32;96625.94;10382961;28;20200;-65
2023/04/26 20:43:28;;;;;;;8.73;4.17;;;;;;;1.72;95.79;96631.00;10361015;28;20676;-64
2023/04/26 20:48:28;;;;;;;14.07;4.17;;;;;;;1.58;96.55;96633.69;10378192;28;20718;-64
2023/04/26 20:53:29;;;;;;;8.23;5.17;;;;;;;1.51;97.83;96629.84;10378143;28;20189;-65
2023/04/26 20:58:30;;;;;;;10.17;3.67;;;;;;;1.52;97.84;96636.69;10377877;28;20658;-66
2023/04/26 21:03:31;;;;;;;9.00;3.77;;;;;;;1.48;98.18;96640.38;10377728;28;20308;-65
2023/04/26 21:08:31;;;;;;;7.20;3.50;;;;;;;1.45;98.22;96635.41;10377319;28;20224;-66
2023/04/26 21:13:31;;;;;;;6.43;3.17;;;;;;;1.35;99.31;96645.53;10377447;28;20271;-65
2023/04/26 21:18:32;;;;;;;12.40;3.33;;;;;;;1.27;99.90;96643.44;10377199;28;20196;-65
2023/04/26 21:23:32;;;;;;;10.03;3.93;;;;;;;1.16;100.00;96645.91;10377042;28;20292;-65
2023/04/26 21:28:33;;;;;;;12.33;3.83;;;;;;;1.14;100.00;96642.59;10376776;28;20219;-65
2023/04/26 21:33:33;;;;;;;5.67;3.13;;;;;;;0.99;100.00;96645.22;10376707;28;20191;-65
2023/04/26 21:38:34;;;;;;;13.03;4.00;;;;;;;0.94;100.00;96649.88;10376503;28;20192;-64
2023/04/26 21:43:34;;;;;;;9.10;3.00;;;;;;;0.86;100.00;96665.84;10376082;28;20199;-66
2023/04/26 21:48:34;;;;;;;5.03;3.37;;;;;;;0.91;100.00;96665.53;10374749;28;20591;-63
2023/04/26 21:53:35;;;;;;;9.90;3.03;;;;;;;0.91;100.00;96668.13;10375839;28;20265;-64
2023/04/26 21:58:35;;;;;;;5.37;3.73;;;;;;;0.78;100.00;96672.38;10375611;28;20200;-63
2023/04/26 22:03:36;;;;;;;10.03;3.40;;;;;;;0.75;100.00;96683.75;10375602;28;20196;-64
2023/04/26 22:08:37;;;;;;;11.03;3.87;;;;;;;0.75;100.00;96688.06;10375043;28;20213;-65
2023/04/26 22:13:37;;;;;;;8.43;3.50;;;;;;;0.77;100.00;96681.06;10375336;28;20611;-64
2023/04/26 22:18:38;;;;;;;3.87;2.67;;;;;;;0.66;100.00;96682.56;10374697;28;20197;-64
2023/04/26 22:23:38;;;;;;;6.47;3.60;;;;;;;0.50;100.00;96679.28;10374819;28;20228;-64
2023/04/26 22:28:38;;;;;;;8.67;3.90;;;;;;;0.46;100.00;96688.97;10374649;28;20621;-64
2023/04/26 22:33:39;;;;;;;7.40;3.60;;;;;;;0.40;100.00;96691.06;10374318;28;20743;-65
2023/04/26 22:38:39;;;;;;;9.77;4.43;;;;;;;0.23;100.00;96697.25;10374203;28;20691;-65
2023/04/26 22:43:40;;;;;;;9.83;2.77;;;;;;;0.22;100.00;96704.16;10426514;23;20301;-65
2023/04/26 22:48:40;;;;;;;6.53;3.60;;;;;;;0.15;100.00;96708.00;10415101;28;20226;-67
2023/04/26 22:53:41;;;;;;;6.60;3.10;;;;;;;0.03;100.00;96707.03;10414674;28;20658;-67
2023/04/26 22:58:41;;;;;;;7.37;3.17;;;;;;;0.10;100.00;96707.47;10414217;28;20601;-66
2023/04/26 23:03:41;;;;;;;7.17;3.10;;;;;;;0.12;100.00;96703.03;10414387;28;20689;-65
2023/04/26 23:08:42;;;;;;;3.97;2.53;;;;;;;-0.02;100.00;96709.03;10413970;28;20825;-65
2023/04/26 23:13:42;;;;;;;3.93;3.43;;;;;;;-0.09;100.00;96711.16;10413714;28;20702;-66
2023/04/26 23:18:42;;;;;;;4.83;3.23;;;;;;;-0.12;100.00;96710.47;10413710;28;20666;-68
2023/04/26 23:23:43;;;;;;;9.73;3.83;;;;;;;-0.19;100.00;96704.88;10413315;28;20237;-67